Arzamas, Russia
Current Conditions -  °F | °C
As of 8:30 AM on Thursday 18 Dec 2014 (Local Time) from UWGG Reporting Station
Light Rain Light Rain  
Wind Chill: 27°   Ceiling: 700
Heat Index: 36°   Visibility: 6mi
Dew Point: 34°   Wind: 13mph
Humidity: 93%   Direction: 200°SSW
Pressure: 29.59"   Gusts: NA
Location:  55.38°N, 43.82°E
Report Text: UWGG 180530Z 20006MPS 9999 -RA OVC007 02/01 Q1002 TEMPO19006G13MPS OVC006 18290040 RMK QFE745
Loading
Personal Weather Stations






























Interactive Weather Map New forecast layout! Learn more

10-Day Weather Forecast

Advertisements
Track Severe Weather on mobile